createdAt,value
2023-03-26T00:01:59.011Z,7.30
2023-03-26T00:06:49.101Z,7.30
2023-03-26T00:11:32.614Z,7.30
2023-03-26T00:16:21.077Z,7.30
2023-03-26T00:21:14.542Z,7.30
2023-03-26T00:25:59.767Z,7.30
2023-03-26T00:30:43.865Z,7.40
2023-03-26T00:41:27.159Z,7.20
2023-03-26T00:46:11.841Z,7.20
2023-03-26T00:51:04.834Z,7.00
2023-03-26T00:55:49.166Z,7.00
2023-03-26T01:00:49.905Z,7.00
2023-03-26T01:06:02.866Z,7.00
2023-03-26T01:11:22.482Z,7.10
2023-03-26T01:16:21.573Z,7.10
2023-03-26T01:21:09.887Z,7.20
2023-03-26T01:26:30.079Z,7.20
2023-03-26T01:31:37.193Z,7.20
2023-03-26T01:36:36.192Z,7.10
2023-03-26T01:41:44.626Z,7.10
2023-03-26T01:47:21.736Z,7.00
2023-03-26T01:53:38.561Z,7.00
2023-03-26T02:04:57.227Z,6.60
2023-03-26T02:09:56.537Z,6.50
2023-03-26T02:15:17.383Z,6.40
2023-03-26T02:26:02.312Z,6.40
2023-03-26T02:31:31.520Z,6.60
2023-03-26T02:36:27.660Z,6.60
2023-03-26T02:41:40.382Z,6.50
2023-03-26T02:46:31.661Z,6.50
2023-03-26T02:51:48.746Z,6.50
2023-03-26T02:57:24.962Z,6.30
2023-03-26T03:02:59.444Z,6.40
2023-03-26T03:07:49.178Z,6.30
2023-03-26T03:13:25.637Z,6.30
2023-03-26T03:18:16.127Z,6.30
2023-03-26T03:33:57.602Z,6.20
2023-03-26T03:39:05.341Z,6.20
2023-03-26T03:44:22.113Z,6.10
2023-03-26T04:02:15.111Z,6.10
2023-03-26T04:08:04.643Z,6.10
2023-03-26T04:25:44.293Z,5.90
2023-03-26T05:02:57.025Z,6.20
2023-03-26T05:07:55.160Z,6.20
2023-03-26T05:13:05.760Z,6.30
2023-03-26T05:17:58.765Z,6.00
2023-03-26T05:23:00.293Z,6.20
2023-03-26T05:27:50.210Z,6.00
2023-03-26T05:38:59.539Z,6.00
2023-03-26T06:03:23.363Z,6.30
2023-03-26T06:08:37.646Z,6.50
2023-03-26T06:13:26.201Z,6.80
2023-03-26T06:18:13.207Z,7.10
2023-03-26T06:23:16.353Z,7.20
2023-03-26T06:28:39.983Z,7.30
2023-03-26T06:33:41.073Z,7.60
2023-03-26T06:38:29.281Z,7.60
2023-03-26T06:43:16.700Z,7.70
2023-03-26T06:49:07.000Z,7.80
2023-03-26T06:54:13.375Z,7.90
2023-03-26T06:59:05.738Z,7.90
2023-03-26T07:04:37.908Z,8.00
2023-03-26T07:09:40.119Z,8.20
2023-03-26T07:14:30.639Z,8.20
2023-03-26T07:19:36.398Z,8.20
2023-03-26T07:24:21.567Z,8.50
2023-03-26T07:29:42.655Z,8.40
2023-03-26T07:35:21.032Z,8.60
2023-03-26T07:40:57.695Z,8.50
2023-03-26T07:46:16.436Z,8.50
2023-03-26T07:51:38.855Z,8.70
2023-03-26T07:56:58.870Z,8.80
2023-03-26T08:02:19.094Z,8.90
2023-03-26T08:07:47.138Z,9.10
2023-03-26T08:12:55.743Z,8.90
2023-03-26T08:17:53.817Z,9.00
2023-03-26T08:22:50.762Z,9.00
2023-03-26T08:27:47.827Z,9.00
2023-03-26T08:32:42.943Z,9.00
2023-03-26T08:37:45.330Z,9.10
2023-03-26T08:43:32.907Z,9.30
2023-03-26T08:48:58.183Z,9.40
2023-03-26T09:00:19.172Z,9.60
2023-03-26T09:05:57.272Z,9.80
2023-03-26T09:11:06.636Z,9.90
2023-03-26T09:16:40.594Z,9.90
2023-03-26T09:21:44.679Z,10.00
2023-03-26T09:26:42.001Z,10.20
2023-03-26T09:32:06.069Z,10.10
2023-03-26T09:36:57.700Z,10.30
2023-03-26T09:41:56.187Z,10.80
2023-03-26T09:47:22.357Z,11.20
2023-03-26T09:52:23.617Z,11.70
2023-03-26T09:57:26.443Z,12.30
2023-03-26T10:03:04.173Z,12.70
2023-03-26T10:08:39.424Z,12.80
2023-03-26T10:13:42.917Z,13.30
2023-03-26T10:18:45.576Z,13.10
2023-03-26T10:23:53.538Z,12.60
2023-03-26T10:29:06.957Z,12.30
2023-03-26T10:34:28.898Z,13.00
2023-03-26T10:39:36.251Z,13.60
2023-03-26T10:45:10.762Z,13.50
2023-03-26T10:50:27.577Z,14.20
2023-03-26T10:55:25.359Z,14.80
2023-03-26T11:00:25.635Z,15.50
2023-03-26T11:05:58.343Z,15.80
2023-03-26T11:11:00.223Z,15.20
2023-03-26T11:16:11.429Z,15.20
2023-03-26T11:21:18.528Z,15.30
2023-03-26T11:26:16.394Z,15.10
2023-03-26T11:31:18.340Z,15.40
2023-03-26T11:36:10.072Z,14.60
2023-03-26T11:40:58.625Z,14.30
2023-03-26T11:46:15.765Z,14.40
2023-03-26T11:51:05.897Z,14.50
2023-03-26T11:56:08.213Z,14.10
2023-03-26T12:00:55.941Z,14.20
2023-03-26T12:05:58.091Z,13.50
2023-03-26T12:10:46.276Z,13.20
2023-03-26T12:15:35.684Z,12.70
2023-03-26T12:26:30.429Z,12.60
2023-03-26T12:31:19.675Z,13.00
2023-03-26T12:36:25.860Z,13.40
2023-03-26T12:44:42.609Z,13.60
2023-03-26T12:47:54.392Z,13.70
2023-03-26T12:52:38.288Z,13.40
2023-03-26T12:57:41.591Z,13.30
2023-03-26T13:02:58.727Z,12.70
2023-03-26T13:08:08.280Z,12.40
2023-03-26T13:18:32.343Z,12.20
2023-03-26T13:23:33.888Z,12.20
2023-03-26T13:28:36.988Z,12.30
2023-03-26T13:33:57.206Z,12.50
2023-03-26T13:39:03.868Z,12.60
2023-03-26T13:44:07.039Z,12.60
2023-03-26T13:49:13.694Z,12.30
2023-03-26T13:54:01.912Z,12.20
2023-03-26T13:58:51.836Z,12.20
2023-03-26T14:04:05.049Z,12.10
2023-03-26T14:09:27.144Z,12.20
2023-03-26T14:20:27.312Z,11.40
2023-03-26T14:25:47.817Z,10.80
2023-03-26T14:31:19.649Z,10.30
2023-03-26T14:36:25.043Z,10.20
2023-03-26T14:41:25.982Z,9.80
2023-03-26T14:46:32.547Z,9.60
2023-03-26T14:51:35.186Z,9.30
2023-03-26T14:57:10.818Z,9.20
2023-03-26T15:02:53.993Z,9.00
2023-03-26T15:08:20.588Z,8.70
2023-03-26T15:13:44.376Z,8.50
2023-03-26T15:19:06.502Z,8.40
2023-03-26T15:24:40.177Z,8.00
2023-03-26T15:29:59.997Z,7.90
2023-03-26T15:35:35.005Z,7.70
2023-03-26T15:41:10.209Z,7.50
2023-03-26T15:46:33.948Z,7.50
2023-03-26T15:51:46.974Z,7.60
2023-03-26T15:57:29.092Z,7.40
2023-03-26T16:02:44.227Z,7.40
2023-03-26T16:08:07.749Z,7.50
2023-03-26T16:13:15.898Z,7.40
2023-03-26T16:18:44.139Z,7.30
2023-03-26T16:23:54.458Z,7.20
2023-03-26T16:28:58.877Z,7.10
2023-03-26T16:34:00.030Z,7.10
2023-03-26T16:38:58.216Z,7.10
2023-03-26T16:44:11.820Z,7.00
2023-03-26T16:49:28.745Z,7.00
2023-03-26T16:54:29.198Z,7.00
2023-03-26T17:00:04.961Z,7.00
2023-03-26T17:05:27.541Z,6.90
2023-03-26T17:10:30.897Z,6.60
2023-03-26T17:15:35.124Z,6.60
2023-03-26T17:20:39.613Z,6.70
2023-03-26T17:25:40.153Z,6.40
2023-03-26T17:31:04.725Z,6.30
2023-03-26T17:35:52.151Z,6.20
2023-03-26T17:40:54.859Z,6.20
2023-03-26T17:45:43.952Z,6.10
2023-03-26T17:50:59.082Z,6.10
2023-03-26T17:55:51.371Z,6.10
2023-03-26T18:00:52.724Z,6.00
2023-03-26T18:05:44.441Z,6.00
2023-03-26T18:10:58.507Z,6.00
2023-03-26T18:16:11.969Z,6.00
2023-03-26T18:21:11.028Z,6.00
2023-03-26T18:26:00.521Z,6.00
2023-03-26T18:30:49.439Z,6.00
2023-03-26T18:35:49.868Z,5.90
2023-03-26T18:40:42.965Z,6.10
2023-03-26T18:45:29.912Z,6.00
2023-03-26T18:50:19.566Z,6.00
2023-03-26T18:55:05.322Z,6.10
2023-03-26T18:59:50.757Z,6.00
2023-03-26T19:04:38.477Z,6.00
2023-03-26T19:09:31.966Z,6.10
2023-03-26T19:14:44.138Z,6.10
2023-03-26T19:19:48.208Z,6.10
2023-03-26T19:24:58.844Z,6.00
2023-03-26T19:29:44.514Z,6.10
2023-03-26T19:34:48.175Z,6.10
2023-03-26T19:40:09.982Z,6.10
2023-03-26T19:44:54.372Z,6.10
2023-03-26T19:50:01.501Z,6.10
2023-03-26T19:55:21.303Z,6.10
2023-03-26T20:00:22.740Z,6.10
2023-03-26T20:05:24.622Z,6.10
2023-03-26T20:10:17.814Z,6.10
2023-03-26T20:15:01.895Z,6.10
2023-03-26T20:19:49.579Z,6.10
2023-03-26T20:24:38.106Z,6.10
2023-03-26T20:29:24.553Z,6.10
2023-03-26T20:34:19.969Z,6.10
2023-03-26T20:39:21.707Z,5.90
2023-03-26T20:44:07.544Z,6.00
2023-03-26T20:48:56.478Z,6.00
2023-03-26T20:53:41.658Z,5.90
2023-03-26T20:58:31.094Z,6.00
2023-03-26T21:03:19.923Z,6.00
2023-03-26T21:08:06.900Z,5.90
2023-03-26T21:12:58.203Z,6.00
2023-03-26T21:17:44.030Z,6.00
2023-03-26T21:22:47.641Z,6.00
2023-03-26T21:27:48.805Z,6.00
2023-03-26T21:32:38.637Z,6.10
2023-03-26T21:37:27.084Z,6.00
2023-03-26T21:42:13.084Z,6.00
2023-03-26T21:47:00.940Z,5.90
2023-03-26T21:51:49.988Z,5.90
2023-03-26T21:56:54.588Z,5.80
2023-03-26T22:01:56.074Z,5.90
2023-03-26T22:06:49.986Z,5.80
2023-03-26T22:11:33.358Z,5.80
2023-03-26T22:16:25.588Z,5.70
2023-03-26T22:21:09.355Z,5.80
2023-03-26T22:26:01.895Z,5.70
2023-03-26T22:30:45.629Z,5.80
2023-03-26T22:35:39.865Z,5.80
2023-03-26T22:40:36.732Z,5.70
2023-03-26T22:45:26.271Z,5.80
2023-03-26T22:50:13.010Z,5.80
2023-03-26T22:55:00.361Z,5.80
2023-03-26T22:59:53.187Z,5.70
2023-03-26T23:04:37.676Z,5.60
2023-03-26T23:09:27.262Z,5.60
2023-03-26T23:14:12.638Z,5.60
2023-03-26T23:19:02.233Z,5.60
2023-03-26T23:23:52.848Z,5.60
2023-03-26T23:28:36.840Z,5.60
2023-03-26T23:33:26.770Z,5.70
2023-03-26T23:38:14.528Z,5.70
2023-03-26T23:43:01.136Z,5.50
2023-03-26T23:47:51.084Z,5.50
2023-03-26T23:52:39.125Z,5.50
2023-03-26T23:57:24.769Z,5.50
